Cotonou Cadedjehoun Airport

Airport
ICAO code: 
DBBB
IATA Code: 
COO
Summary
ICAO Region: 
AFI
Territory: 
Location: 
Cotonou,
Serving: 
Cotonou
Elevation: 
20 ft
Coordinates: 
Aerial View: 
6° 21' 30.852" N, 2° 23' 4.374" E
Metar
Observation
DBBB 010800Z VRB03KT 7000 FEW009 28/26 Q1011 TEMPO 4500 BR
Station
Cotonou
Date/Time
2021-12-01 08:00:00
Wind speed
03 kts
Lowest cloud amount
few clouds
Temperature
28°C
Dew point
26°C
Humidity
88%
QNH
1011 hPa
Weather condition
n/a

Description

International airport serving Cotonou, the biggest city in Benin in West Africa..

Climatology

Tropical Savanna climate (Köppen climate classification Aw).

Runways

Designator Length Width Surface Rops
6/24 2400 45 ASP Yes/Yes
Airport map: 
Aerial View: 

Accidents and Serious Incidents at or in the vicinity of DBBB

SKYbrary Partners:

Safety knowledge contributed by: